createdAt,value
2018-02-13T00:01:03.045Z,90.92
2018-02-13T00:02:30.112Z,91.30
2018-02-13T00:03:52.931Z,91.04
2018-02-13T00:05:23.375Z,91.22
2018-02-13T00:06:50.447Z,91.27
2018-02-13T00:08:17.431Z,91.52
2018-02-13T00:09:40.412Z,91.17
2018-02-13T00:11:11.249Z,90.74
2018-02-13T00:12:38.121Z,90.64
2018-02-13T00:14:01.419Z,90.48
2018-02-13T00:15:28.721Z,90.38
2018-02-13T00:16:59.945Z,90.43
2018-02-13T00:18:26.627Z,90.34
2018-02-13T00:19:49.800Z,90.21
2018-02-13T00:21:20.744Z,89.86
2018-02-13T00:22:43.996Z,90.11
2018-02-13T00:24:11.010Z,89.91
2018-02-13T00:25:38.171Z,89.80
2018-02-13T00:27:05.142Z,89.65
2018-02-13T00:28:32.165Z,89.32
2018-02-13T00:30:03.004Z,89.53
2018-02-13T00:31:26.206Z,89.31
2018-02-13T00:32:57.494Z,89.08
2018-02-13T00:34:24.568Z,89.33
2018-02-13T00:35:51.697Z,89.31
2018-02-13T00:37:18.524Z,89.58
2018-02-13T00:38:45.676Z,90.22
2018-02-13T00:40:12.858Z,90.42
2018-02-13T00:41:35.966Z,91.13
2018-02-13T00:43:06.964Z,90.99
2018-02-13T00:44:34.201Z,90.93
2018-02-13T00:46:01.335Z,91.46
2018-02-13T00:47:24.467Z,91.56
2018-02-13T00:48:51.677Z,91.21
2018-02-13T00:50:18.880Z,91.45
2018-02-13T00:51:45.189Z,91.66
2018-02-13T00:53:16.305Z,91.64
2018-02-13T00:54:39.279Z,91.50
2018-02-13T00:56:06.244Z,91.38
2018-02-13T00:57:32.945Z,91.11
2018-02-13T00:59:00.077Z,90.97
2018-02-13T01:00:26.735Z,90.68
2018-02-13T01:01:54.003Z,90.28
2018-02-13T01:03:25.060Z,90.27
2018-02-13T01:04:52.364Z,90.00
2018-02-13T01:06:15.405Z,89.86
2018-02-13T01:07:46.749Z,89.65
2018-02-13T01:09:09.771Z,89.57
2018-02-13T01:10:40.258Z,89.48
2018-02-13T01:12:03.284Z,89.17
2018-02-13T01:13:34.443Z,89.12
2018-02-13T01:15:01.681Z,88.90
2018-02-13T01:16:28.863Z,88.80
2018-02-13T01:17:55.982Z,88.57
2018-02-13T01:19:23.119Z,88.41
2018-02-13T01:20:50.288Z,88.27
2018-02-13T01:22:17.522Z,88.15
2018-02-13T01:23:40.457Z,88.30
2018-02-13T01:25:11.113Z,88.30
2018-02-13T01:26:33.837Z,88.31
2018-02-13T01:28:01.011Z,88.34
2018-02-13T01:29:28.214Z,88.37
2018-02-13T01:30:59.454Z,88.46
2018-02-13T01:32:22.515Z,88.47
2018-02-13T01:33:49.377Z,88.39
2018-02-13T01:35:16.456Z,88.49
2018-02-13T01:36:43.049Z,88.63
2018-02-13T01:38:13.540Z,88.64
2018-02-13T01:39:40.050Z,88.96
2018-02-13T01:41:07.106Z,88.91
2018-02-13T01:42:34.258Z,89.16
2018-02-13T01:43:57.497Z,89.03
2018-02-13T01:45:28.558Z,88.97
2018-02-13T01:46:55.464Z,88.86
2018-02-13T01:48:22.598Z,88.82
2018-02-13T01:49:49.344Z,88.83
2018-02-13T01:51:16.290Z,88.84
2018-02-13T01:52:43.367Z,88.82
2018-02-13T01:54:10.470Z,88.81
2018-02-13T01:55:33.561Z,88.75
2018-02-13T01:57:05.680Z,88.63
2018-02-13T01:58:27.085Z,88.44
2018-02-13T01:59:54.203Z,88.29
2018-02-13T02:01:21.313Z,88.37
2018-02-13T02:02:52.380Z,88.41
2018-02-13T02:04:15.537Z,88.53
2018-02-13T02:05:46.478Z,88.69
2018-02-13T02:07:09.739Z,88.97
2018-02-13T02:08:36.286Z,89.02
2018-02-13T02:10:07.291Z,88.86
2018-02-13T02:11:34.471Z,88.90
2018-02-13T02:13:02.487Z,89.03
2018-02-13T02:14:23.922Z,89.04
2018-02-13T02:15:55.726Z,89.11
2018-02-13T02:17:21.829Z,88.98
2018-02-13T02:18:48.851Z,88.86
2018-02-13T02:20:15.882Z,88.83
2018-02-13T02:21:42.953Z,88.80
2018-02-13T02:23:09.643Z,88.62
2018-02-13T02:24:32.452Z,88.70
2018-02-13T02:25:59.586Z,88.97
2018-02-13T02:27:29.943Z,88.97
2018-02-13T02:28:56.617Z,88.92
2018-02-13T02:30:23.848Z,88.89
2018-02-13T02:31:47.045Z,88.79
2018-02-13T02:33:14.223Z,88.75
2018-02-13T02:34:40.748Z,88.69
2018-02-13T02:36:11.859Z,88.79
2018-02-13T02:37:34.802Z,88.79
2018-02-13T02:39:06.004Z,88.80
2018-02-13T02:40:33.341Z,88.87
2018-02-13T02:41:56.618Z,88.96
2018-02-13T02:43:27.614Z,88.83
2018-02-13T02:44:50.723Z,88.70
2018-02-13T02:46:17.084Z,88.84
2018-02-13T02:47:48.246Z,88.79
2018-02-13T02:49:11.667Z,88.66
2018-02-13T02:50:42.587Z,88.51
2018-02-13T02:52:09.651Z,88.50
2018-02-13T02:53:36.208Z,88.73
2018-02-13T02:55:02.873Z,88.76
2018-02-13T02:56:29.894Z,88.94
2018-02-13T02:57:57.086Z,88.86
2018-02-13T02:59:24.174Z,88.90
2018-02-13T03:00:47.297Z,88.84
2018-02-13T03:02:14.365Z,88.71
2018-02-13T03:03:41.258Z,88.62
2018-02-13T03:05:08.444Z,88.64
2018-02-13T03:06:39.169Z,88.54
2018-02-13T03:08:06.262Z,88.65
2018-02-13T03:09:28.859Z,88.58
2018-02-13T03:11:00.011Z,88.56
2018-02-13T03:12:27.381Z,88.55
2018-02-13T03:13:49.673Z,88.54
2018-02-13T03:15:17.097Z,88.47
2018-02-13T03:16:43.461Z,88.44
2018-02-13T03:18:14.641Z,88.45
2018-02-13T03:19:41.491Z,88.33
2018-02-13T03:21:04.388Z,88.36
2018-02-13T03:22:31.528Z,88.33
2018-02-13T03:23:58.671Z,88.34
2018-02-13T03:25:29.809Z,88.36
2018-02-13T03:26:52.201Z,88.42
2018-02-13T03:28:23.400Z,88.40
2018-02-13T03:29:49.796Z,88.38
2018-02-13T03:31:16.826Z,88.26
2018-02-13T03:32:43.931Z,88.27
2018-02-13T03:34:10.496Z,88.17
2018-02-13T03:35:33.393Z,88.11
2018-02-13T03:37:00.477Z,88.16
2018-02-13T03:38:31.677Z,88.22
2018-02-13T03:39:58.749Z,88.25
2018-02-13T03:41:21.887Z,88.27
2018-02-13T03:42:53.094Z,88.29
2018-02-13T03:44:20.071Z,88.39
2018-02-13T03:45:47.177Z,88.25
2018-02-13T03:47:09.730Z,88.28
2018-02-13T03:48:40.712Z,88.21
2018-02-13T03:50:07.297Z,88.17
2018-02-13T03:51:33.823Z,88.12
2018-02-13T03:52:57.065Z,88.23
2018-02-13T03:54:24.101Z,88.13
2018-02-13T03:55:50.927Z,88.06
2018-02-13T03:57:22.166Z,88.13
2018-02-13T03:58:49.329Z,88.01
2018-02-13T04:00:15.897Z,87.93
2018-02-13T04:01:38.507Z,87.99
2018-02-13T04:03:05.496Z,87.89
2018-02-13T04:04:36.459Z,87.81
2018-02-13T04:06:03.441Z,87.66
2018-02-13T04:07:26.788Z,87.70
2018-02-13T04:08:53.746Z,87.82
2018-02-13T04:10:25.049Z,87.61
2018-02-13T04:11:52.085Z,87.58
2018-02-13T04:13:18.512Z,87.64
2018-02-13T04:14:45.599Z,87.52
2018-02-13T04:16:12.746Z,87.53
2018-02-13T04:17:39.656Z,87.39
2018-02-13T04:19:02.734Z,87.51
2018-02-13T04:20:33.054Z,87.35
2018-02-13T04:21:56.309Z,87.39
2018-02-13T04:23:27.474Z,87.45
2018-02-13T04:24:53.973Z,87.53
2018-02-13T04:26:20.924Z,87.56
2018-02-13T04:27:48.064Z,87.63
2018-02-13T04:29:14.584Z,87.72
2018-02-13T04:30:37.510Z,87.69
2018-02-13T04:32:04.639Z,87.88
2018-02-13T04:33:35.716Z,87.78
2018-02-13T04:34:58.783Z,87.79
2018-02-13T04:36:25.897Z,87.79
2018-02-13T04:37:57.282Z,87.74
2018-02-13T04:39:23.724Z,87.95
2018-02-13T04:40:50.769Z,87.90
2018-02-13T04:42:17.767Z,87.86
2018-02-13T04:43:44.845Z,87.86
2018-02-13T04:45:12.120Z,87.82
2018-02-13T04:46:39.105Z,87.85
2018-02-13T04:48:02.293Z,87.91
2018-02-13T04:49:33.493Z,87.89
2018-02-13T04:50:56.109Z,87.87
2018-02-13T04:52:27.321Z,87.87
2018-02-13T04:53:50.319Z,87.83
2018-02-13T04:55:21.553Z,87.80
2018-02-13T04:56:44.238Z,87.81
2018-02-13T04:58:10.998Z,87.63
2018-02-13T04:59:41.901Z,87.74
2018-02-13T05:01:09.055Z,87.72
2018-02-13T05:02:36.308Z,87.63
2018-02-13T05:03:59.153Z,87.54
2018-02-13T05:05:26.387Z,87.49
2018-02-13T05:06:57.047Z,87.46
2018-02-13T05:08:23.995Z,87.53
2018-02-13T05:09:47.255Z,87.46
2018-02-13T05:11:14.437Z,87.39
2018-02-13T05:12:40.990Z,87.51
2018-02-13T05:14:08.003Z,87.59
2018-02-13T05:15:38.876Z,87.56
2018-02-13T05:17:06.074Z,87.78
2018-02-13T05:18:29.300Z,87.83
2018-02-13T05:20:00.131Z,87.90
2018-02-13T05:21:27.266Z,88.01
2018-02-13T05:22:53.973Z,87.88
2018-02-13T05:24:17.259Z,87.84
2018-02-13T05:25:44.307Z,87.75
2018-02-13T05:27:11.328Z,87.66
2018-02-13T05:28:41.901Z,87.65
2018-02-13T05:30:04.826Z,87.66
2018-02-13T05:31:31.998Z,87.67
2018-02-13T05:32:58.538Z,87.76
2018-02-13T05:34:29.544Z,87.69
2018-02-13T05:35:57.619Z,87.69
2018-02-13T05:37:19.588Z,87.67
2018-02-13T05:38:50.227Z,87.66
2018-02-13T05:40:13.303Z,87.68
2018-02-13T05:41:44.408Z,87.60
2018-02-13T05:43:11.159Z,87.70
2018-02-13T05:44:38.202Z,88.01
2018-02-13T05:46:05.264Z,88.04
2018-02-13T05:47:32.573Z,88.13
2018-02-13T05:48:55.238Z,88.14
2018-02-13T05:50:22.345Z,88.10
2018-02-13T05:51:49.456Z,88.09
2018-02-13T05:53:20.452Z,87.79
2018-02-13T05:54:43.580Z,87.61
2018-02-13T05:56:10.725Z,87.51
2018-02-13T05:57:37.656Z,87.42
2018-02-13T05:59:08.575Z,87.43
2018-02-13T06:00:35.859Z,87.42
2018-02-13T06:01:58.473Z,87.32
2018-02-13T06:03:25.494Z,87.47
2018-02-13T06:04:56.643Z,87.62
2018-02-13T06:06:23.925Z,87.71
2018-02-13T06:07:51.038Z,87.47
2018-02-13T06:09:13.733Z,87.79
2018-02-13T06:10:44.780Z,87.66
2018-02-13T06:12:12.019Z,87.85
2018-02-13T06:13:38.955Z,87.65
2018-02-13T06:15:06.363Z,87.93
2018-02-13T06:16:33.385Z,88.05
2018-02-13T06:18:00.484Z,88.17
2018-02-13T06:19:27.455Z,88.17
2018-02-13T06:20:54.640Z,88.09
2018-02-13T06:22:21.668Z,88.14
2018-02-13T06:23:49.033Z,88.09
2018-02-13T06:25:12.169Z,88.05
2018-02-13T06:26:39.196Z,87.93
2018-02-13T06:28:06.519Z,87.91
2018-02-13T06:29:37.299Z,88.00
2018-02-13T06:31:00.389Z,87.96
2018-02-13T06:32:27.284Z,88.06
2018-02-13T06:33:54.396Z,87.83
2018-02-13T06:35:25.630Z,87.84
2018-02-13T06:36:52.655Z,88.21
2018-02-13T06:38:15.806Z,88.25
2018-02-13T06:39:46.616Z,88.14
2018-02-13T06:41:13.985Z,88.19
2018-02-13T06:42:40.917Z,88.22
2018-02-13T06:44:08.203Z,88.24
2018-02-13T06:45:34.824Z,88.05
2018-02-13T06:47:01.575Z,88.00
2018-02-13T06:48:28.619Z,87.99
2018-02-13T06:49:55.667Z,88.25
2018-02-13T06:51:18.501Z,88.28
2018-02-13T06:52:45.381Z,88.45
2018-02-13T06:54:16.467Z,88.34
2018-02-13T06:55:39.637Z,88.38
2018-02-13T06:57:06.534Z,88.37
2018-02-13T06:58:33.064Z,88.59
2018-02-13T07:00:00.059Z,88.39
2018-02-13T07:01:31.099Z,88.59
2018-02-13T07:02:53.899Z,88.56
2018-02-13T07:04:20.747Z,88.80
2018-02-13T07:05:51.776Z,88.63
2018-02-13T07:07:19.201Z,88.60
2018-02-13T07:08:42.277Z,88.53
2018-02-13T07:10:09.337Z,88.46
2018-02-13T07:11:36.388Z,88.35
2018-02-13T07:13:03.583Z,88.38
2018-02-13T07:14:34.202Z,88.15
2018-02-13T07:16:01.512Z,88.06
2018-02-13T07:17:28.470Z,88.09
2018-02-13T07:18:51.760Z,88.09
2018-02-13T07:20:18.979Z,87.90
2018-02-13T07:21:50.100Z,87.76
2018-02-13T07:23:16.913Z,87.96
2018-02-13T07:24:44.169Z,88.08
2018-02-13T07:26:07.173Z,88.19
2018-02-13T07:27:38.067Z,88.41
2018-02-13T07:29:05.103Z,88.12
2018-02-13T07:30:32.361Z,88.06
2018-02-13T07:31:59.253Z,87.88
2018-02-13T07:33:26.327Z,88.11
2018-02-13T07:34:53.004Z,88.13
2018-02-13T07:36:20.085Z,87.74
2018-02-13T07:37:47.105Z,87.73
2018-02-13T07:39:14.117Z,87.61
2018-02-13T07:40:37.134Z,87.53
2018-02-13T07:42:03.948Z,87.62
2018-02-13T07:43:34.655Z,87.51
2018-02-13T07:44:57.878Z,87.43
2018-02-13T07:46:28.839Z,87.28
2018-02-13T07:47:52.133Z,87.36
2018-02-13T07:49:19.293Z,87.15
2018-02-13T07:50:46.445Z,87.24
2018-02-13T07:52:17.048Z,87.07
2018-02-13T07:53:40.258Z,86.93
2018-02-13T07:55:06.901Z,86.85
2018-02-13T07:56:37.381Z,86.85
2018-02-13T07:58:04.352Z,86.93
2018-02-13T07:59:27.638Z,86.83
2018-02-13T08:00:54.967Z,86.77
2018-02-13T08:02:22.355Z,86.78
2018-02-13T08:03:53.216Z,86.72
2018-02-13T08:05:20.282Z,86.69
2018-02-13T08:06:47.639Z,86.45
2018-02-13T08:08:14.705Z,86.67
2018-02-13T08:09:37.802Z,86.59
2018-02-13T08:11:08.821Z,86.76
2018-02-13T08:12:31.946Z,86.80
2018-02-13T08:14:03.029Z,86.69
2018-02-13T08:15:29.859Z,86.92
2018-02-13T08:16:53.143Z,86.98
2018-02-13T08:18:23.929Z,86.95
2018-02-13T08:19:50.687Z,87.09
2018-02-13T08:21:17.460Z,87.14
2018-02-13T08:22:44.183Z,87.10
2018-02-13T08:24:11.157Z,87.07
2018-02-13T08:25:34.108Z,87.04
2018-02-13T08:27:05.308Z,87.03
2018-02-13T08:28:28.310Z,87.06
2018-02-13T08:29:55.477Z,87.04
2018-02-13T08:31:26.265Z,86.85
2018-02-13T08:32:53.350Z,86.74
2018-02-13T08:34:19.976Z,86.66
2018-02-13T08:35:46.783Z,86.53
2018-02-13T08:37:13.659Z,86.45
2018-02-13T08:38:36.709Z,86.44
2018-02-13T08:40:03.438Z,86.39
2018-02-13T08:41:33.909Z,86.34
2018-02-13T08:43:00.986Z,86.53
2018-02-13T08:44:28.079Z,86.39
2018-02-13T08:45:55.233Z,86.43
2018-02-13T08:47:18.444Z,86.58
2018-02-13T08:48:45.449Z,86.42
2018-02-13T08:50:12.492Z,86.29
2018-02-13T08:51:39.673Z,86.08
2018-02-13T08:53:10.266Z,86.20
2018-02-13T08:54:37.231Z,86.39
2018-02-13T08:56:03.921Z,86.29
2018-02-13T08:57:26.995Z,86.22
2018-02-13T08:58:54.088Z,86.19
2018-02-13T09:00:21.191Z,86.16
2018-02-13T09:01:52.393Z,86.23
2018-02-13T09:03:15.554Z,86.25
2018-02-13T09:04:42.385Z,86.23
2018-02-13T09:06:09.593Z,86.06
2018-02-13T09:07:40.670Z,86.08
2018-02-13T09:09:03.838Z,86.02
2018-02-13T09:10:34.773Z,85.90
2018-02-13T09:11:57.871Z,85.97
2018-02-13T09:13:25.205Z,85.68
2018-02-13T09:14:56.577Z,85.60
2018-02-13T09:16:23.724Z,85.63
2018-02-13T09:17:50.830Z,85.21
2018-02-13T09:19:13.845Z,84.91
2018-02-13T09:20:44.925Z,84.99
2018-02-13T09:22:11.951Z,84.78
2018-02-13T09:23:39.048Z,84.49
2018-02-13T09:25:02.475Z,84.44
2018-02-13T09:26:33.697Z,84.47
2018-02-13T09:27:56.405Z,84.34
2018-02-13T09:29:23.237Z,84.54
2018-02-13T09:30:54.429Z,84.59
2018-02-13T09:32:21.556Z,84.56
2018-02-13T09:33:44.375Z,84.62
2018-02-13T09:35:15.249Z,84.73
2018-02-13T09:36:38.482Z,84.46
2018-02-13T09:38:05.703Z,84.38
2018-02-13T09:39:32.847Z,84.14
2018-02-13T09:41:04.004Z,84.11
2018-02-13T09:42:30.838Z,84.14
2018-02-13T09:43:53.901Z,83.89
2018-02-13T09:45:21.064Z,83.82
2018-02-13T09:46:51.974Z,83.79
2018-02-13T09:48:15.049Z,83.73
2018-02-13T09:49:46.254Z,83.38
2018-02-13T09:51:09.453Z,82.99
2018-02-13T09:52:40.557Z,83.13
2018-02-13T09:54:07.567Z,83.05
2018-02-13T09:55:30.686Z,82.91
2018-02-13T09:57:01.310Z,82.83
2018-02-13T09:58:24.418Z,82.77
2018-02-13T09:59:55.570Z,82.37
2018-02-13T10:01:22.588Z,82.67
2018-02-13T10:02:49.573Z,82.58
2018-02-13T10:04:16.685Z,82.47
2018-02-13T10:05:43.740Z,82.49
2018-02-13T10:07:06.620Z,82.38
2018-02-13T10:08:33.710Z,82.19
2018-02-13T10:10:01.037Z,82.38
2018-02-13T10:11:27.789Z,82.17
2018-02-13T10:12:58.963Z,81.82
2018-02-13T10:14:21.980Z,81.97
2018-02-13T10:15:53.229Z,81.93
2018-02-13T10:17:19.776Z,81.41
2018-02-13T10:18:46.829Z,81.47
2018-02-13T10:20:14.078Z,81.52
2018-02-13T10:21:40.731Z,81.37
2018-02-13T10:23:07.840Z,81.26
2018-02-13T10:24:34.724Z,81.38
2018-02-13T10:25:57.855Z,81.46
2018-02-13T10:27:25.201Z,81.62
2018-02-13T10:28:56.319Z,81.36
2018-02-13T10:30:19.768Z,81.16
2018-02-13T10:31:46.884Z,81.02
2018-02-13T10:33:14.158Z,80.68
2018-02-13T10:34:41.298Z,80.97
2018-02-13T10:36:12.205Z,80.77
2018-02-13T10:37:39.248Z,80.57
2018-02-13T10:39:02.149Z,79.75
2018-02-13T10:40:29.171Z,80.24
2018-02-13T10:42:00.125Z,80.64
2018-02-13T10:43:27.101Z,80.61
2018-02-13T10:44:54.331Z,80.20
2018-02-13T10:46:21.487Z,80.45
2018-02-13T10:47:48.712Z,80.03
2018-02-13T10:49:15.899Z,80.55
2018-02-13T10:50:43.085Z,81.23
2018-02-13T10:52:06.161Z,80.41
2018-02-13T10:53:36.944Z,79.84
2018-02-13T10:55:00.222Z,79.86
2018-02-13T10:56:31.486Z,80.13
2018-02-13T10:57:58.377Z,80.30
2018-02-13T10:59:21.234Z,79.52
2018-02-13T11:00:52.402Z,79.96
2018-02-13T11:02:19.501Z,80.78
2018-02-13T11:03:42.477Z,80.62
2018-02-13T11:05:09.194Z,80.70
2018-02-13T11:06:36.029Z,80.88
2018-02-13T11:08:03.007Z,80.27
2018-02-13T11:09:30.164Z,80.63
2018-02-13T11:11:01.444Z,80.01
2018-02-13T11:12:28.695Z,80.59
2018-02-13T11:13:55.613Z,80.59
2018-02-13T11:15:18.594Z,80.16
2018-02-13T11:16:45.883Z,79.90
2018-02-13T11:18:13.001Z,79.50
2018-02-13T11:19:40.245Z,79.53
2018-02-13T11:21:07.330Z,79.30
2018-02-13T11:22:38.541Z,79.15
2018-02-13T11:24:01.872Z,78.53
2018-02-13T11:25:28.896Z,78.86
2018-02-13T11:27:00.295Z,79.52
2018-02-13T11:28:23.570Z,79.33
2018-02-13T11:29:54.709Z,78.77
2018-02-13T11:31:18.041Z,79.59
2018-02-13T11:32:45.102Z,79.58
2018-02-13T11:34:15.886Z,78.08
2018-02-13T11:35:38.787Z,78.79
2018-02-13T11:37:06.040Z,78.77
2018-02-13T11:38:32.796Z,78.83
2018-02-13T11:40:00.097Z,77.95
2018-02-13T11:41:31.293Z,78.93
2018-02-13T11:42:54.346Z,78.49
2018-02-13T11:44:25.548Z,77.03
2018-02-13T11:45:48.592Z,76.70
2018-02-13T11:47:15.808Z,76.58
2018-02-13T11:48:47.205Z,76.52
2018-02-13T11:50:10.500Z,76.58
2018-02-13T11:51:37.541Z,76.34
2018-02-13T11:53:08.776Z,75.55
2018-02-13T11:54:31.957Z,75.77
2018-02-13T11:56:03.138Z,74.54
2018-02-13T11:57:30.600Z,74.49
2018-02-13T11:58:53.801Z,74.48
2018-02-13T12:00:25.045Z,74.40
2018-02-13T12:01:48.374Z,74.26
2018-02-13T12:03:15.439Z,74.40
2018-02-13T12:04:42.590Z,72.35
2018-02-13T12:06:13.556Z,72.52
2018-02-13T12:07:36.976Z,73.62
2018-02-13T12:09:07.961Z,74.18
2018-02-13T12:10:30.746Z,73.12
2018-02-13T12:11:58.042Z,72.91
2018-02-13T12:13:29.192Z,72.96
2018-02-13T12:14:52.302Z,72.90
2018-02-13T12:16:23.472Z,72.73
2018-02-13T12:17:46.798Z,72.76
2018-02-13T12:19:17.908Z,72.26
2018-02-13T12:20:41.257Z,71.80
2018-02-13T12:22:08.472Z,71.46
2018-02-13T12:23:39.538Z,70.47
2018-02-13T12:25:02.511Z,70.26
2018-02-13T12:26:33.807Z,70.40
2018-02-13T12:27:57.041Z,70.73
2018-02-13T12:29:28.320Z,70.12
2018-02-13T12:30:51.486Z,70.55
2018-02-13T12:32:18.838Z,69.78
2018-02-13T12:33:50.111Z,68.65
2018-02-13T12:35:13.418Z,68.20
2018-02-13T12:36:40.578Z,67.91
2018-02-13T12:38:07.459Z,67.50
2018-02-13T12:39:38.359Z,68.26
2018-02-13T12:41:01.721Z,68.51
2018-02-13T12:42:29.032Z,67.23
2018-02-13T12:43:56.286Z,65.90
2018-02-13T12:45:27.621Z,65.98
2018-02-13T12:46:50.878Z,64.90
2018-02-13T12:48:22.285Z,66.00
2018-02-13T12:49:49.270Z,66.50
2018-02-13T12:51:12.659Z,64.62
2018-02-13T12:52:43.595Z,63.57
2018-02-13T12:54:06.904Z,63.53
2018-02-13T12:55:34.045Z,64.75
2018-02-13T12:57:05.132Z,63.74
2018-02-13T12:58:28.462Z,64.26
2018-02-13T12:59:55.787Z,65.15
2018-02-13T13:01:23.063Z,63.57
2018-02-13T13:02:50.484Z,63.61
2018-02-13T13:04:21.581Z,64.10
2018-02-13T13:05:48.959Z,63.23
2018-02-13T13:07:16.337Z,62.74
2018-02-13T13:08:39.507Z,61.52
2018-02-13T13:10:06.731Z,63.60
2018-02-13T13:11:33.964Z,62.33
2018-02-13T13:13:04.680Z,62.91
2018-02-13T13:14:27.920Z,63.47
2018-02-13T13:15:54.790Z,63.36
2018-02-13T13:17:26.207Z,62.24
2018-02-13T13:18:49.493Z,62.62
2018-02-13T13:20:20.681Z,62.96
2018-02-13T13:21:48.010Z,62.99
2018-02-13T13:23:11.073Z,62.01
2018-02-13T13:24:38.273Z,62.10
2018-02-13T13:26:09.717Z,62.36
2018-02-13T13:27:36.161Z,62.30
2018-02-13T13:29:03.298Z,61.60
2018-02-13T13:30:30.599Z,60.35
2018-02-13T13:31:53.897Z,61.00
2018-02-13T13:33:25.369Z,61.05
2018-02-13T13:34:52.565Z,61.81
2018-02-13T13:36:19.843Z,60.89
2018-02-13T13:37:42.902Z,61.45
2018-02-13T13:39:09.817Z,60.55
2018-02-13T13:40:36.557Z,60.06
2018-02-13T13:42:07.397Z,60.71
2018-02-13T13:43:30.876Z,61.27
2018-02-13T13:44:57.527Z,61.11
2018-02-13T13:46:24.733Z,61.27
2018-02-13T13:47:52.039Z,60.82
2018-02-13T13:49:22.531Z,60.91
2018-02-13T13:50:45.823Z,61.25
2018-02-13T13:52:13.024Z,61.33
2018-02-13T13:53:40.256Z,60.93
2018-02-13T13:55:07.563Z,60.96
2018-02-13T13:56:38.842Z,61.76
2018-02-13T13:58:02.081Z,62.42
2018-02-13T13:59:32.833Z,62.05
2018-02-13T14:00:56.142Z,62.41
2018-02-13T14:02:27.521Z,62.61
2018-02-13T14:03:50.851Z,62.33
2018-02-13T14:05:18.127Z,62.26
2018-02-13T14:06:48.983Z,62.63
2018-02-13T14:08:11.765Z,62.98
2018-02-13T14:09:42.984Z,63.17
2018-02-13T14:11:06.118Z,62.84
2018-02-13T14:12:33.374Z,62.65
2018-02-13T14:14:00.288Z,62.80
2018-02-13T14:15:27.492Z,63.38
2018-02-13T14:16:58.890Z,62.95
2018-02-13T14:18:22.106Z,62.86
2018-02-13T14:19:52.531Z,62.71
2018-02-13T14:21:19.704Z,62.91
2018-02-13T14:22:43.085Z,63.29
2018-02-13T14:24:14.112Z,63.77
2018-02-13T14:25:37.559Z,64.67
2018-02-13T14:27:04.425Z,64.92
2018-02-13T14:28:35.572Z,64.86
2018-02-13T14:29:58.888Z,64.78
2018-02-13T14:31:29.821Z,65.08
2018-02-13T14:32:53.243Z,65.95
2018-02-13T14:34:24.170Z,65.84
2018-02-13T14:35:47.420Z,65.38
2018-02-13T14:37:18.508Z,65.63
2018-02-13T14:38:45.696Z,65.98
2018-02-13T14:40:09.082Z,66.28
2018-02-13T14:41:36.167Z,66.31
2018-02-13T14:43:03.412Z,66.90
2018-02-13T14:44:34.686Z,67.30
2018-02-13T14:46:02.087Z,67.58
2018-02-13T14:47:24.986Z,67.74
2018-02-13T14:48:51.833Z,67.98
2018-02-13T14:50:23.179Z,67.98
2018-02-13T14:51:46.490Z,68.25
2018-02-13T14:53:13.714Z,68.05
2018-02-13T14:54:45.054Z,68.51
2018-02-13T14:56:12.190Z,68.02
2018-02-13T14:57:35.577Z,68.20
2018-02-13T14:59:02.445Z,68.11
2018-02-13T15:00:29.701Z,68.53
2018-02-13T15:01:56.837Z,67.92
2018-02-13T15:03:24.116Z,68.04
2018-02-13T15:04:55.390Z,68.35
2018-02-13T15:06:18.647Z,68.30
2018-02-13T15:07:49.867Z,68.22
2018-02-13T15:09:13.272Z,68.37
2018-02-13T15:10:40.524Z,68.17
2018-02-13T15:12:11.565Z,68.53
2018-02-13T15:13:34.774Z,68.06
2018-02-13T15:15:02.193Z,68.15
2018-02-13T15:16:33.301Z,68.23
2018-02-13T15:17:56.504Z,68.85
2018-02-13T15:19:23.999Z,68.70
2018-02-13T15:20:51.180Z,69.33
2018-02-13T15:22:18.574Z,70.01
2018-02-13T15:23:45.729Z,70.14
2018-02-13T15:25:13.042Z,69.96
2018-02-13T15:26:44.184Z,70.00
2018-02-13T15:28:07.571Z,70.01
2018-02-13T15:29:34.757Z,69.89
2018-02-13T15:31:05.809Z,70.09
2018-02-13T15:32:28.896Z,70.25
2018-02-13T15:33:56.388Z,70.34
2018-02-13T15:35:23.679Z,70.55
2018-02-13T15:36:54.758Z,70.27
2018-02-13T15:38:17.969Z,70.32
2018-02-13T15:39:45.237Z,70.44
2018-02-13T15:41:12.374Z,70.41
2018-02-13T15:42:39.578Z,70.28
2018-02-13T15:44:06.772Z,69.94
2018-02-13T15:45:33.939Z,70.26
2018-02-13T15:47:01.188Z,70.31
2018-02-13T15:48:32.266Z,70.64
2018-02-13T15:49:55.688Z,70.44
2018-02-13T15:51:26.957Z,70.44
2018-02-13T15:52:50.260Z,70.75
2018-02-13T15:54:17.460Z,70.67
2018-02-13T15:55:48.620Z,70.93
2018-02-13T15:57:11.853Z,70.10
2018-02-13T15:58:43.122Z,70.63
2018-02-13T16:00:06.365Z,70.64
2018-02-13T16:01:37.232Z,70.74
2018-02-13T16:03:04.709Z,70.73
2018-02-13T16:04:27.989Z,70.84
2018-02-13T16:05:59.081Z,70.45
2018-02-13T16:07:22.319Z,70.22
2018-02-13T16:08:49.492Z,70.70
2018-02-13T16:10:16.759Z,70.30
2018-02-13T16:11:43.866Z,70.62
2018-02-13T16:13:10.873Z,70.72
2018-02-13T16:14:38.088Z,70.61
2018-02-13T16:16:09.403Z,70.54
2018-02-13T16:17:32.630Z,70.41
2018-02-13T16:18:59.868Z,71.08
2018-02-13T16:20:27.208Z,70.90
2018-02-13T16:21:58.203Z,70.91
2018-02-13T16:23:25.338Z,71.02
2018-02-13T16:24:52.678Z,71.11
2018-02-13T16:26:15.909Z,71.14
2018-02-13T16:27:47.222Z,71.50
2018-02-13T16:29:14.419Z,71.37
2018-02-13T16:30:41.247Z,71.55
2018-02-13T16:32:04.526Z,71.77
2018-02-13T16:33:35.289Z,71.70
2018-02-13T16:34:58.612Z,71.52
2018-02-13T16:36:29.865Z,71.87
2018-02-13T16:37:53.263Z,72.10
2018-02-13T16:39:20.304Z,72.04
2018-02-13T16:40:51.674Z,71.96
2018-02-13T16:42:18.669Z,72.24
2018-02-13T16:43:45.921Z,72.31
2018-02-13T16:45:09.293Z,72.62
2018-02-13T16:46:36.415Z,73.01
2018-02-13T16:48:03.439Z,73.39
2018-02-13T16:49:30.695Z,73.59
2018-02-13T16:51:01.775Z,73.83
2018-02-13T16:52:28.873Z,74.18
2018-02-13T16:53:56.077Z,73.93
2018-02-13T16:55:23.159Z,73.60
2018-02-13T16:56:46.084Z,74.00
2018-02-13T16:58:17.144Z,74.33
2018-02-13T16:59:40.332Z,74.68
2018-02-13T17:01:07.577Z,74.85
2018-02-13T17:02:34.774Z,75.00
2018-02-13T17:04:01.976Z,74.57
2018-02-13T17:05:33.036Z,74.81
2018-02-13T17:06:56.410Z,75.18
2018-02-13T17:08:23.637Z,74.90
2018-02-13T17:09:54.903Z,75.25
2018-02-13T17:11:18.028Z,75.32
2018-02-13T17:12:45.387Z,75.58
2018-02-13T17:14:16.599Z,75.69
2018-02-13T17:15:43.797Z,75.75
2018-02-13T17:17:06.927Z,76.08
2018-02-13T17:18:34.136Z,76.09
2018-02-13T17:20:05.403Z,75.92
2018-02-13T17:21:28.641Z,75.90
2018-02-13T17:22:55.943Z,76.02
2018-02-13T17:24:23.252Z,76.36
2018-02-13T17:25:50.506Z,76.55
2018-02-13T17:27:17.797Z,76.38
2018-02-13T17:28:45.103Z,76.29
2018-02-13T17:30:12.281Z,76.48
2018-02-13T17:31:43.378Z,76.14
2018-02-13T17:33:10.489Z,76.36
2018-02-13T17:34:37.647Z,76.42
2018-02-13T17:36:00.790Z,76.39
2018-02-13T17:37:28.233Z,76.71
2018-02-13T17:38:59.514Z,76.95
2018-02-13T17:40:26.953Z,77.08
2018-02-13T17:41:53.799Z,76.93
2018-02-13T17:43:16.949Z,77.20
2018-02-13T17:44:48.042Z,76.90
2018-02-13T17:46:11.364Z,77.04
2018-02-13T17:47:42.497Z,77.04
2018-02-13T17:49:05.649Z,77.54
2018-02-13T17:50:32.580Z,77.46
2018-02-13T17:52:03.853Z,77.27
2018-02-13T17:53:26.808Z,77.33
2018-02-13T17:54:54.002Z,77.18
2018-02-13T17:56:21.071Z,77.19
2018-02-13T17:57:48.176Z,77.48
2018-02-13T17:59:15.120Z,77.36
2018-02-13T18:00:42.208Z,77.98
2018-02-13T18:02:09.262Z,77.65
2018-02-13T18:03:40.479Z,77.60
2018-02-13T18:05:06.986Z,77.59
2018-02-13T18:06:30.390Z,77.79
2018-02-13T18:08:01.366Z,77.55
2018-02-13T18:09:24.467Z,77.90
2018-02-13T18:10:51.626Z,77.81
2018-02-13T18:12:18.872Z,77.94
2018-02-13T18:13:45.782Z,78.17
2018-02-13T18:15:16.877Z,78.37
2018-02-13T18:16:43.997Z,78.17
2018-02-13T18:18:11.385Z,78.28
2018-02-13T18:19:34.597Z,77.39
2018-02-13T18:21:05.753Z,77.38
2018-02-13T18:22:28.856Z,77.09
2018-02-13T18:24:00.094Z,77.49
2018-02-13T18:25:23.297Z,78.10
2018-02-13T18:26:54.526Z,78.40
2018-02-13T18:28:21.509Z,78.43
2018-02-13T18:29:44.572Z,78.18
2018-02-13T18:31:11.710Z,78.23
2018-02-13T18:32:42.976Z,78.12
2018-02-13T18:34:05.947Z,78.10
2018-02-13T18:35:36.896Z,78.24
2018-02-13T18:37:00.007Z,77.72
2018-02-13T18:38:27.157Z,77.84
2018-02-13T18:39:57.860Z,78.07
2018-02-13T18:41:21.003Z,78.08